Time;durP1;ratioP1;P1;durP2;ratioP2;P2;SDS_P1;SDS_P2;PMS_P1;PMS_P2;Temp;Humidity;BMP_temperature;BMP_pressure;BME280_temperature;BME280_humidity;BME280_pressure;Samples;Min_cycle;Max_cycle;Signal;HPM_P1;HPM_P2
2023/04/26 07:22:25;;;;;;;12.80;7.90;;;;;;;-145.79;66.36;78899.47;5229031;28;20365;-66
2023/04/26 07:24:57;;;;;;;12.00;8.85;;;;;;;-145.79;65.47;78903.69;5233611;28;20545;-66
2023/04/26 07:27:30;;;;;;;12.65;7.18;;;;;;;-145.79;65.04;78912.19;5199261;28;20391;-66
2023/04/26 07:30:02;;;;;;;10.63;5.75;;;;;;;-145.79;64.88;78903.69;5222218;28;20030;-66
2023/04/26 07:32:33;;;;;;;11.15;6.60;;;;;;;-145.79;65.09;78880.38;5213451;28;20481;-66
2023/04/26 07:35:14;;;;;;;15.90;7.68;;;;;;;-145.79;63.98;78884.63;5212903;28;20046;-65
2023/04/26 07:37:45;;;;;;;9.70;6.43;;;;;;;-145.79;63.74;78869.78;5212844;28;20369;-66
2023/04/26 07:40:17;;;;;;;12.65;6.15;;;;;;;-145.79;62.60;78865.53;5217152;28;20037;-65
2023/04/26 07:42:49;;;;;;;9.75;5.57;;;;;;;-145.79;62.15;78835.84;5225136;28;20084;-66
2023/04/26 07:45:20;;;;;;;8.90;5.30;;;;;;;-145.79;61.50;78827.38;5191749;28;20046;-66
2023/04/26 07:47:52;;;;;;;13.43;5.78;;;;;;;-145.79;61.25;78808.28;5191877;28;20334;-66
2023/04/26 07:50:23;;;;;;;11.13;5.25;;;;;;;-145.79;60.33;78799.81;5198799;28;20404;-66
2023/04/26 07:52:55;;;;;;;9.40;5.30;;;;;;;-145.79;60.14;78799.81;5228165;28;20025;-65
2023/04/26 07:55:27;;;;;;;9.40;5.43;;;;;;;-145.79;59.40;78797.69;5231952;28;20056;-66
2023/04/26 07:57:58;;;;;;;11.30;4.00;;;;;;;-145.79;57.98;78795.56;5228291;28;20026;-66
2023/04/26 08:00:30;;;;;;;6.18;4.10;;;;;;;-145.79;57.99;78797.69;5203791;28;20034;-66
2023/04/26 08:03:02;;;;;;;30.73;6.47;;;;;;;-145.79;57.57;78780.72;5191426;28;20022;-66
2023/04/26 08:05:33;;;;;;;11.98;4.20;;;;;;;-145.79;56.83;78808.28;5200272;28;20381;-65
2023/04/26 08:08:05;;;;;;;9.43;4.47;;;;;;;-145.79;58.44;78784.97;5211995;28;20038;-68
2023/04/26 08:10:40;;;;;;;7.55;3.95;;;;;;;-145.79;60.93;78759.50;5209803;28;20105;-69
2023/04/26 08:13:11;;;;;;;5.05;3.60;;;;;;;-145.79;55.83;78772.22;5212269;28;20034;-66
2023/04/26 08:15:43;;;;;;;10.50;4.50;;;;;;;-145.79;55.38;78776.47;5198666;28;20066;-66
2023/04/26 08:18:14;;;;;;;9.50;4.25;;;;;;;-145.79;56.32;78757.38;5194767;28;20490;-67
2023/04/26 08:20:45;;;;;;;7.75;3.67;;;;;;;-145.79;54.73;78744.66;5202007;28;20396;-68
2023/04/26 08:23:18;;;;;;;7.57;3.72;;;;;;;-145.79;54.11;78742.53;5206161;28;20091;-69
2023/04/26 08:25:49;;;;;;;8.77;4.70;;;;;;;-145.79;53.83;78748.91;5203937;28;20347;-69
2023/04/26 08:28:21;;;;;;;8.48;3.45;;;;;;;-145.79;52.59;78768.00;5191608;28;20026;-69
2023/04/26 08:30:52;;;;;;;5.50;2.50;;;;;;;-145.79;51.98;78755.28;5203097;28;20052;-68
2023/04/26 08:33:23;;;;;;;6.78;3.60;;;;;;;-145.79;53.79;78757.38;5189568;28;20423;-68
2023/04/26 08:35:55;;;;;;;12.90;5.10;;;;;;;-145.79;54.05;78751.03;5198468;28;20018;-69
2023/04/26 08:38:28;;;;;;;6.47;2.67;;;;;;;-145.79;52.42;78736.19;5178199;28;20031;-68
2023/04/26 08:41:00;;;;;;;4.90;2.03;;;;;;;-145.79;49.45;78751.03;5177731;28;20483;-68
2023/04/26 08:43:34;;;;;;;4.30;2.55;;;;;;;-145.79;50.61;78736.19;5178048;28;20466;-68
2023/04/26 08:46:09;;;;;;;3.75;2.35;;;;;;;-145.79;50.53;78731.94;5177574;28;20482;-68
2023/04/26 08:48:41;;;;;;;3.95;2.28;;;;;;;-145.79;50.31;78719.22;5182094;28;20324;-68
2023/04/26 08:51:14;;;;;;;8.93;4.43;;;;;;;-145.79;51.33;78700.13;5190439;28;20031;-68
2023/04/26 08:53:48;;;;;;;6.28;2.70;;;;;;;-145.79;50.25;78721.34;5184401;28;20229;-68
2023/04/26 08:56:23;;;;;;;4.05;2.65;;;;;;;-145.79;49.61;78723.47;5182629;28;20054;-68
2023/04/26 08:58:54;;;;;;;5.50;2.63;;;;;;;-145.79;50.58;78708.63;5173931;28;20058;-69
2023/04/26 09:01:28;;;;;;;6.10;2.90;;;;;;;-145.79;50.42;78691.66;5203545;28;20505;-69
2023/04/26 09:04:00;;;;;;;7.82;2.50;;;;;;;-145.79;48.60;78678.94;5230471;28;20030;-69
2023/04/26 09:06:32;;;;;;;7.93;3.38;;;;;;;-145.79;48.26;78668.34;5195012;28;20366;-69
2023/04/26 09:09:07;;;;;;;7.47;2.83;;;;;;;-145.79;48.13;78659.84;5184308;28;20474;-71
2023/04/26 09:11:56;;;;;;;8.85;3.78;;;;;;;-145.79;48.19;78649.25;5190381;28;20402;-70
2023/04/26 09:14:30;;;;;;;7.03;3.50;;;;;;;-145.79;48.37;78636.53;5176766;28;20038;-68
2023/04/26 09:17:02;;;;;;;6.93;3.40;;;;;;;-145.79;48.08;78623.81;5176385;28;20026;-68
2023/04/26 09:19:39;;;;;;;7.93;3.90;;;;;;;-145.79;47.12;78628.06;5177694;28;20042;-69
2023/04/26 09:22:13;;;;;;;6.95;3.85;;;;;;;-145.79;47.52;78630.16;5177374;28;20059;-69
2023/04/26 09:24:51;;;;;;;5.63;2.88;;;;;;;-145.79;46.91;78634.41;5180132;28;20027;-69
2023/04/26 09:27:40;;;;;;;7.10;3.03;;;;;;;-145.79;47.17;78649.25;5194602;28;20026;-69
2023/04/26 09:30:17;;;;;;;6.85;2.97;;;;;;;-145.79;47.21;78640.78;5196732;28;20071;-72
2023/04/26 09:32:50;;;;;;;7.20;3.05;;;;;;;-145.79;46.42;78640.78;5192651;28;20096;-68
2023/04/26 09:35:27;;;;;;;6.65;2.30;;;;;;;-145.79;46.40;78625.94;5187041;28;20039;-70
2023/04/26 09:38:03;;;;;;;3.67;2.30;;;;;;;-145.79;45.53;78632.28;5178075;28;20039;-70
2023/04/26 09:40:55;;;;;;;4.82;2.85;;;;;;;-145.79;46.76;78615.34;5188750;28;20030;-69
2023/04/26 09:43:36;;;;;;;5.88;2.90;;;;;;;-145.79;46.22;78608.97;5179970;28;20428;-71
2023/04/26 09:46:08;;;;;;;3.58;2.58;;;;;;;-145.79;45.92;78594.13;5177328;28;20080;-70
2023/04/26 09:48:40;;;;;;;4.85;3.10;;;;;;;-145.79;46.07;78596.25;5176596;28;20034;-71
2023/04/26 09:51:14;;;;;;;7.45;3.90;;;;;;;-145.79;46.50;78572.94;5177986;28;20026;-72
2023/04/26 09:53:48;;;;;;;5.78;3.33;;;;;;;-145.79;46.11;78553.84;5185879;28;20030;-74
2023/04/26 09:56:20;;;;;;;4.15;2.38;;;;;;;-145.79;44.97;78562.31;5196575;28;20361;-71
2023/04/26 09:58:52;;;;;;;7.18;3.70;;;;;;;-145.79;44.60;78564.44;5185637;28;20062;-71
2023/04/26 10:01:25;;;;;;;5.40;3.10;;;;;;;-145.79;45.32;78545.38;5184186;28;20069;-70
2023/04/26 10:03:56;;;;;;;5.03;3.20;;;;;;;-145.79;45.38;78541.13;5186898;28;20031;-69
2023/04/26 10:06:27;;;;;;;5.93;2.90;;;;;;;-145.79;45.04;78545.38;5197416;28;20032;-70
2023/04/26 10:09:00;;;;;;;5.38;3.15;;;;;;;-145.79;44.98;78560.19;5196290;28;20362;-70
2023/04/26 10:11:33;;;;;;;3.90;2.65;;;;;;;-145.79;45.37;78564.44;5185613;28;20522;-71
2023/04/26 10:14:05;;;;;;;5.05;2.90;;;;;;;-145.79;45.70;78558.09;5187234;28;20119;-71
2023/04/26 10:16:37;;;;;;;7.53;4.22;;;;;;;-145.79;44.67;78572.94;5168434;28;20155;-71
2023/04/26 10:19:12;;;;;;;7.88;4.43;;;;;;;-145.79;45.37;78606.84;5176544;28;20053;-70
2023/04/26 10:21:50;;;;;;;5.00;3.58;;;;;;;-145.79;46.50;78589.88;5178507;28;20061;-71
2023/04/26 10:24:22;;;;;;;7.47;3.90;;;;;;;-145.79;45.94;78575.03;5190094;28;20034;-70
2023/04/26 10:26:56;;;;;;;5.18;3.63;;;;;;;-145.79;46.25;78594.13;5187895;28;20038;-70
2023/04/26 10:29:53;;;;;;;6.82;3.78;;;;;;;-145.79;46.46;78570.81;5185060;28;20084;-70
2023/04/26 10:32:27;;;;;;;6.43;3.95;;;;;;;-145.79;46.63;78568.69;5214051;28;20063;-71
2023/04/26 10:35:18;;;;;;;11.30;3.83;;;;;;;-145.79;46.53;78555.97;5204215;28;20418;-70
2023/04/26 10:37:58;;;;;;;9.90;7.00;;;;;;;-145.79;46.86;78555.97;5228161;28;20107;-71
2023/04/26 10:40:31;;;;;;;6.22;4.38;;;;;;;-145.79;47.05;78553.84;5302093;28;20148;-71
2023/04/26 10:43:08;;;;;;;4.47;3.95;;;;;;;-145.79;47.06;78551.72;5191949;28;20079;-70
2023/04/26 10:45:43;;;;;;;4.22;3.42;;;;;;;-145.79;47.00;78560.19;5194991;28;20050;-71
2023/04/26 10:48:27;;;;;;;10.52;4.18;;;;;;;-145.79;47.87;78517.81;5191909;28;20390;-71
2023/04/26 10:51:03;;;;;;;7.88;3.95;;;;;;;-145.79;47.39;78515.69;5187573;28;20365;-73
2023/04/26 10:53:34;;;;;;;8.65;5.53;;;;;;;-145.79;45.92;78541.13;5195105;28;20079;-72
2023/04/26 10:56:05;;;;;;;5.80;3.70;;;;;;;-145.79;45.94;78545.38;5196183;28;20034;-72
2023/04/26 10:58:40;;;;;;;7.47;5.00;;;;;;;-145.79;46.43;78551.72;5195656;28;20084;-73
2023/04/26 11:01:16;;;;;;;6.97;4.50;;;;;;;-145.79;47.14;78530.53;5195897;28;20107;-72
2023/04/26 11:03:56;;;;;;;9.18;4.22;;;;;;;-145.79;47.46;78526.28;5194557;28;20154;-71
2023/04/26 11:06:46;;;;;;;6.53;4.18;;;;;;;-145.79;47.31;78511.44;5175665;28;20030;-71
2023/04/26 11:09:31;;;;;;;6.10;4.10;;;;;;;-145.79;47.08;78513.56;5196551;28;20385;-70
2023/04/26 11:12:04;;;;;;;6.90;4.75;;;;;;;-145.79;47.08;78505.06;5195729;28;20133;-71
2023/04/26 11:14:35;;;;;;;6.32;4.30;;;;;;;-145.79;46.48;78505.06;5196269;28;20035;-70
2023/04/26 11:17:08;;;;;;;7.50;4.40;;;;;;;-145.79;46.55;78483.88;5195943;28;20030;-71
2023/04/26 11:19:48;;;;;;;6.55;4.07;;;;;;;-145.79;45.48;78488.13;5193752;28;20034;-71
2023/04/26 11:22:23;;;;;;;7.60;4.60;;;;;;;-145.79;45.31;78486.00;5195884;28;20133;-71
2023/04/26 11:24:54;;;;;;;14.40;9.80;;;;;;;-145.79;45.74;78449.94;5184855;28;20462;-71
2023/04/26 11:27:26;;;;;;;8.73;5.68;;;;;;;-145.79;44.24;78452.06;5176380;28;20105;-71
2023/04/26 11:30:03;;;;;;;8.07;5.35;;;;;;;-145.79;43.45;78458.44;5196125;28;20026;-71
2023/04/26 11:32:34;;;;;;;6.55;4.13;;;;;;;-145.79;43.45;78462.66;5192793;28;20053;-71
2023/04/26 11:35:06;;;;;;;9.23;4.93;;;;;;;-145.79;43.59;78433.00;5194319;28;20054;-70
2023/04/26 11:37:37;;;;;;;8.55;5.15;;;;;;;-145.79;43.22;78428.75;5195866;28;20029;-72
2023/04/26 11:40:10;;;;;;;7.10;4.47;;;;;;;-145.79;43.56;78437.22;5195668;28;20059;-70
2023/04/26 11:42:43;;;;;;;6.35;4.65;;;;;;;-145.79;48.30;78371.50;5177741;28;20031;-74
2023/04/26 11:45:15;;;;;;;5.90;4.13;;;;;;;-145.79;44.69;78373.63;5176615;28;20480;-72
2023/04/26 11:47:46;;;;;;;6.15;4.43;;;;;;;-145.79;43.98;78382.09;5178372;28;20035;-71
2023/04/26 11:50:19;;;;;;;5.40;4.60;;;;;;;-145.79;43.53;78403.31;5186341;28;20030;-71
2023/04/26 11:52:53;;;;;;;7.60;5.35;;;;;;;-145.79;43.67;78386.34;5187099;28;20436;-71
2023/04/26 11:55:30;;;;;;;9.55;4.93;;;;;;;-145.79;44.67;78403.31;5178125;28;20376;-71
2023/04/26 11:58:10;;;;;;;12.82;9.52;;;;;;;-145.79;45.54;78407.53;5176102;28;20031;-71
2023/04/26 12:00:55;;;;;;;16.17;11.15;;;;;;;-145.79;45.43;78428.75;5174840;28;20027;-72
2023/04/26 12:03:36;;;;;;;8.23;6.63;;;;;;;-145.79;45.65;78413.91;5174811;28;20065;-69
2023/04/26 12:06:07;;;;;;;12.68;6.22;;;;;;;-145.79;45.88;78413.91;5187669;28;20034;-69
2023/04/26 12:08:38;;;;;;;10.48;5.80;;;;;;;-145.79;44.68;78437.22;5197780;28;20380;-69
2023/04/26 12:11:10;;;;;;;10.15;6.35;;;;;;;-145.79;46.10;78426.63;5199575;28;20030;-69
2023/04/26 12:13:41;;;;;;;9.93;5.03;;;;;;;-145.79;46.46;78413.91;5196679;28;20022;-70
2023/04/26 12:16:13;;;;;;;8.73;5.32;;;;;;;-145.79;45.53;78411.78;5193155;28;20061;-72
2023/04/26 12:18:50;;;;;;;9.70;5.57;;;;;;;-145.79;44.94;78420.28;5198656;28;20019;-69
2023/04/26 12:21:23;;;;;;;8.13;4.93;;;;;;;-145.79;44.79;78428.75;5196876;28;20062;-68
2023/04/26 12:23:54;;;;;;;13.02;8.93;;;;;;;-145.79;44.81;78420.28;5179353;28;20023;-70
2023/04/26 12:26:44;;;;;;;7.25;4.93;;;;;;;-145.79;44.76;78416.03;5181983;28;20042;-69
2023/04/26 12:29:15;;;;;;;10.43;5.80;;;;;;;-145.79;44.81;78407.53;5182410;28;20022;-69
2023/04/26 12:31:47;;;;;;;7.10;5.50;;;;;;;-145.79;43.76;78399.06;5179056;28;20121;-69
2023/04/26 12:34:18;;;;;;;7.63;5.57;;;;;;;-145.79;43.31;78394.81;5178223;28;20461;-69
2023/04/26 12:36:50;;;;;;;9.35;5.50;;;;;;;-145.79;42.53;78392.72;5177799;28;20106;-69
2023/04/26 12:39:21;;;;;;;8.32;5.32;;;;;;;-145.79;43.19;78360.91;5178334;28;20058;-70
2023/04/26 12:41:53;;;;;;;7.85;5.25;;;;;;;-145.79;43.04;78337.59;5178487;28;20427;-70
2023/04/26 12:44:28;;;;;;;10.35;6.07;;;;;;;-145.79;42.26;78326.97;5177454;28;20019;-72
2023/04/26 12:46:59;;;;;;;6.90;5.50;;;;;;;-145.79;42.59;78339.69;5178962;28;20041;-71
2023/04/26 12:49:30;;;;;;;7.18;5.38;;;;;;;-145.79;42.34;78352.44;5179101;28;20019;-71
2023/04/26 12:52:02;;;;;;;6.72;5.63;;;;;;;-145.79;43.26;78360.91;5189498;28;20034;-71
2023/04/26 12:54:34;;;;;;;13.65;6.32;;;;;;;-145.79;42.86;78352.44;5199112;28;20435;-71
2023/04/26 12:57:08;;;;;;;9.05;5.47;;;;;;;-145.79;43.67;78358.78;5196146;28;20164;-71
2023/04/26 12:59:40;;;;;;;12.52;5.93;;;;;;;-145.79;43.70;78333.34;5198903;28;20088;-70
2023/04/26 13:02:11;;;;;;;7.57;5.13;;;;;;;-145.79;43.59;78352.44;5198314;28;20031;-70
2023/04/26 13:04:42;;;;;;;10.15;5.25;;;;;;;-145.79;43.34;78348.19;5193326;28;20018;-69
2023/04/26 13:07:15;;;;;;;9.77;5.97;;;;;;;-145.79;42.98;78348.19;5180661;28;20023;-70
2023/04/26 13:09:46;;;;;;;9.55;6.63;;;;;;;-145.79;43.26;78356.66;5177725;28;20023;-71
2023/04/26 13:12:18;;;;;;;40.33;31.85;;;;;;;-145.79;43.35;78339.69;5177134;28;20019;-71
2023/04/26 13:14:49;;;;;;;10.00;6.93;;;;;;;-145.79;43.07;78348.19;5178188;28;20465;-70
2023/04/26 13:17:23;;;;;;;9.23;6.25;;;;;;;-145.79;42.37;78341.81;5182792;28;20087;-68
2023/04/26 13:19:57;;;;;;;7.82;5.45;;;;;;;-145.79;40.90;78352.44;5194136;28;20058;-70
2023/04/26 13:22:29;;;;;;;8.98;5.60;;;;;;;-145.79;41.65;78326.97;5196142;28;20060;-72
2023/04/26 13:25:00;;;;;;;10.43;6.28;;;;;;;-145.79;40.58;78343.94;5196586;28;20030;-71
2023/04/26 13:27:31;;;;;;;8.52;5.63;;;;;;;-145.79;40.70;78350.31;5198277;28;20030;-72
2023/04/26 13:30:03;;;;;;;12.35;6.28;;;;;;;-145.79;41.42;78331.22;5198101;28;20018;-71
2023/04/26 13:32:34;;;;;;;7.63;5.57;;;;;;;-145.79;41.29;78337.59;5197143;28;20099;-71
2023/04/26 13:35:07;;;;;;;9.85;6.18;;;;;;;-145.79;42.00;78322.75;5197777;28;20067;-71
2023/04/26 13:37:38;;;;;;;15.02;10.00;;;;;;;-145.79;42.26;78297.31;5197108;28;20025;-70
2023/04/26 13:40:10;;;;;;;9.52;6.22;;;;;;;-145.79;41.41;78314.25;5190520;28;20023;-71
2023/04/26 13:42:44;;;;;;;26.52;18.85;;;;;;;-145.79;41.78;78290.94;5177413;28;20482;-76
2023/04/26 13:45:15;;;;;;;10.48;5.95;;;;;;;-145.79;48.29;78250.66;5175295;28;20023;-74
2023/04/26 13:47:46;;;;;;;9.80;5.85;;;;;;;-145.79;41.64;78278.22;5183554;28;20086;-71
2023/04/26 13:50:18;;;;;;;8.27;6.53;;;;;;;-145.79;40.94;78267.63;5188612;28;20027;-72
2023/04/26 13:52:51;;;;;;;7.88;6.30;;;;;;;-145.79;40.21;78267.63;5176983;28;20126;-71
2023/04/26 13:55:23;;;;;;;13.07;5.80;;;;;;;-145.79;40.17;78271.84;5176073;28;20027;-69
2023/04/26 13:57:55;;;;;;;7.13;6.43;;;;;;;-145.79;40.42;78250.66;5177871;28;20462;-70
2023/04/26 14:00:26;;;;;;;8.93;5.60;;;;;;;-145.79;40.06;78242.19;5190476;28;20042;-69
2023/04/26 14:02:58;;;;;;;8.27;4.97;;;;;;;-145.79;39.42;78216.72;5195879;28;20117;-71
2023/04/26 14:05:29;;;;;;;8.90;5.63;;;;;;;-145.79;38.26;78193.41;5195249;28;20026;-68
2023/04/26 14:08:04;;;;;;;10.10;4.72;;;;;;;-145.79;38.67;78208.25;5194649;28;20102;-69
2023/04/26 14:10:35;;;;;;;7.50;5.10;;;;;;;-145.79;38.66;78204.00;5195002;28;20034;-69
2023/04/26 14:13:06;;;;;;;6.50;5.85;;;;;;;-145.79;39.72;78184.94;5195156;28;20027;-69
2023/04/26 14:15:38;;;;;;;6.25;4.63;;;;;;;-145.79;39.70;78184.94;5193053;28;20070;-69
2023/04/26 14:18:10;;;;;;;9.18;5.32;;;;;;;-145.79;39.28;78191.28;5195951;28;20478;-70
2023/04/26 14:20:41;;;;;;;7.45;5.70;;;;;;;-145.79;39.84;78201.91;5196500;28;20042;-70
2023/04/26 14:23:13;;;;;;;6.47;4.63;;;;;;;-145.79;38.82;78210.38;5196443;28;20451;-71
2023/04/26 14:25:44;;;;;;;6.90;5.20;;;;;;;-145.79;39.58;78195.53;5196943;28;20018;-70
2023/04/26 14:28:15;;;;;;;10.70;5.47;;;;;;;-145.79;39.45;78201.91;5191831;28;20492;-70
2023/04/26 14:30:47;;;;;;;6.82;5.35;;;;;;;-145.79;39.28;78225.22;5183837;28;20034;-70
2023/04/26 14:33:21;;;;;;;8.85;5.47;;;;;;;-145.79;39.20;78212.50;5176675;28;20470;-70
2023/04/26 14:35:53;;;;;;;11.68;8.82;;;;;;;-145.79;38.96;78214.63;5175881;28;20062;-75
2023/04/26 14:38:27;;;;;;;9.60;5.88;;;;;;;-145.79;38.79;78231.56;5180640;28;20104;-70
2023/04/26 14:40:58;;;;;;;7.57;4.50;;;;;;;-145.79;39.15;78227.34;5192494;28;20345;-69
2023/04/26 14:43:29;;;;;;;7.35;4.35;;;;;;;-145.79;39.14;78246.41;5191049;28;20030;-69
2023/04/26 14:46:02;;;;;;;10.07;8.48;;;;;;;-145.79;38.68;78267.63;5176693;28;20226;-69
2023/04/26 14:48:33;;;;;;;10.95;4.57;;;;;;;-145.79;38.36;78252.78;5185561;28;20030;-70
2023/04/26 14:51:05;;;;;;;7.50;3.85;;;;;;;-145.79;38.46;78250.66;5196092;28;20091;-70
2023/04/26 14:53:37;;;;;;;5.13;3.33;;;;;;;-145.79;38.36;78252.78;5196573;28;20030;-69
2023/04/26 14:56:08;;;;;;;6.25;3.67;;;;;;;-145.79;38.59;78259.13;5187225;28;20030;-69
2023/04/26 14:58:40;;;;;;;4.95;3.85;;;;;;;-145.79;39.01;78259.13;5175064;28;20094;-70
2023/04/26 15:01:11;;;;;;;6.32;3.67;;;;;;;-145.79;38.91;78244.28;5176465;28;20523;-71
2023/04/26 15:03:43;;;;;;;11.88;7.97;;;;;;;-145.79;39.29;78248.53;5175851;28;20023;-69
2023/04/26 15:06:14;;;;;;;20.40;15.15;;;;;;;-145.79;39.40;78233.69;5189060;28;20019;-69
2023/04/26 15:08:45;;;;;;;6.57;4.55;;;;;;;-145.79;39.50;78229.47;5193997;28;20053;-71
2023/04/26 15:11:17;;;;;;;4.88;3.80;;;;;;;-145.79;39.89;78233.69;5195296;28;20023;-72
2023/04/26 15:13:48;;;;;;;12.63;10.23;;;;;;;-145.79;39.45;78227.34;5196053;28;20086;-70
2023/04/26 15:16:19;;;;;;;7.13;4.45;;;;;;;-145.79;38.53;78204.00;5183679;28;20058;-70
2023/04/26 15:18:51;;;;;;;6.65;3.97;;;;;;;-145.79;38.22;78199.78;5176322;28;20045;-70
2023/04/26 15:21:22;;;;;;;7.93;4.75;;;;;;;-145.79;38.09;78182.81;5176324;28;20058;-71
2023/04/26 15:23:56;;;;;;;7.55;4.28;;;;;;;-145.79;38.64;78180.69;5176396;28;20050;-70
2023/04/26 15:26:29;;;;;;;7.00;4.70;;;;;;;-145.79;38.92;78184.94;5179904;28;20038;-71
2023/04/26 15:29:01;;;;;;;6.72;3.97;;;;;;;-145.79;39.11;78178.56;5191982;28;20034;-71
2023/04/26 15:31:33;;;;;;;6.32;3.65;;;;;;;-145.79;38.47;78189.19;5194501;28;20026;-71
2023/04/26 15:34:04;;;;;;;24.15;16.98;;;;;;;-145.79;39.29;78176.47;5194986;28;20026;-71
2023/04/26 15:36:44;;;;;;;12.15;6.35;;;;;;;-145.79;38.08;78176.47;5195873;28;20033;-71
2023/04/26 15:39:18;;;;;;;6.85;3.42;;;;;;;-145.79;38.36;78178.56;5188229;28;20077;-71
2023/04/26 15:41:50;;;;;;;5.95;3.88;;;;;;;-145.79;38.66;78195.53;5175089;28;20039;-71
2023/04/26 15:44:21;;;;;;;6.18;4.00;;;;;;;-145.79;38.97;78193.41;5188527;28;20365;-71
2023/04/26 15:46:52;;;;;;;5.03;3.95;;;;;;;-145.79;38.96;78172.22;5198442;28;20022;-71
2023/04/26 15:49:24;;;;;;;11.63;4.32;;;;;;;-145.79;39.05;78155.25;5199542;28;20027;-70
2023/04/26 15:51:55;;;;;;;5.35;3.85;;;;;;;-145.79;39.01;78182.81;5199374;28;20110;-71
2023/04/26 15:54:26;;;;;;;6.35;3.58;;;;;;;-145.79;39.31;78204.00;5198813;28;20110;-71
2023/04/26 15:56:58;;;;;;;5.63;3.50;;;;;;;-145.79;39.58;78206.13;5186359;28;20027;-71
2023/04/26 15:59:31;;;;;;;7.13;3.83;;;;;;;-145.79;40.17;78195.53;5178862;28;20018;-71
2023/04/26 16:02:03;;;;;;;4.88;4.25;;;;;;;-145.79;40.91;78182.81;5178778;28;20031;-71
2023/04/26 16:04:35;;;;;;;6.30;4.30;;;;;;;-145.79;40.83;78163.72;5180710;28;20114;-71
2023/04/26 16:07:06;;;;;;;7.22;3.95;;;;;;;-145.79;40.06;78170.09;5179279;28;20105;-69
2023/04/26 16:09:37;;;;;;;5.53;3.75;;;;;;;-145.79;39.88;78178.56;5179877;28;20035;-69
2023/04/26 16:12:09;;;;;;;6.32;4.60;;;;;;;-145.79;39.20;78201.91;5179927;28;20102;-70
2023/04/26 16:14:40;;;;;;;4.63;3.47;;;;;;;-145.79;38.80;78184.94;5196955;28;20042;-70
2023/04/26 16:17:12;;;;;;;6.72;5.00;;;;;;;-145.79;38.58;78204.00;5199635;28;20034;-70
2023/04/26 16:19:43;;;;;;;5.63;3.70;;;;;;;-145.79;39.22;78182.81;5199637;28;20473;-70
2023/04/26 16:22:14;;;;;;;5.65;3.70;;;;;;;-145.79;38.82;78187.06;5198836;28;20454;-70
2023/04/26 16:24:46;;;;;;;6.35;4.03;;;;;;;-145.79;38.59;78191.28;5199952;28;20460;-71
2023/04/26 16:27:19;;;;;;;6.90;4.03;;;;;;;-145.79;38.22;78189.19;5200048;28;20057;-71
2023/04/26 16:29:54;;;;;;;6.95;4.03;;;;;;;-145.79;37.85;78182.81;5197943;28;20027;-71
2023/04/26 16:32:25;;;;;;;5.22;3.75;;;;;;;-145.79;38.12;78187.06;5199418;28;20027;-70
2023/04/26 16:34:56;;;;;;;6.13;3.90;;;;;;;-145.79;38.33;78178.56;5198777;28;20545;-68
2023/04/26 16:37:27;;;;;;;4.70;2.95;;;;;;;-145.79;38.67;78180.69;5183419;28;20378;-69
2023/04/26 16:39:59;;;;;;;6.45;4.10;;;;;;;-145.79;38.63;78182.81;5199939;28;20030;-68
2023/04/26 16:42:30;;;;;;;23.83;18.88;;;;;;;-145.79;38.31;78174.34;5198810;28;20031;-68
2023/04/26 16:45:02;;;;;;;9.35;5.43;;;;;;;-145.79;38.70;78170.09;5199873;28;20034;-68
2023/04/26 16:47:33;;;;;;;6.57;3.33;;;;;;;-145.79;38.75;78161.63;5189629;28;20033;-67
2023/04/26 16:50:05;;;;;;;8.18;4.10;;;;;;;-145.79;38.80;78161.63;5178701;28;20397;-68
2023/04/26 16:52:37;;;;;;;6.50;4.38;;;;;;;-145.79;38.76;78144.66;5179023;28;20106;-69
